Providence, Rhode Island
Traffic Map
Current Weather Conditions
Providence, Rhode Island
Overcast Haze
Overcast
39°
Feels Like: 39°
Wind Chill: 39° Ceiling: 2000
Heat Index: 39° Visibility: 4mi
Dew Point: 36° Wind: 3mph
Humidity: 89% Direction: 280° (W)
Pressure: 29.92in Gusts: 0mph
Raw Report DataKPVD 051844Z 28003KT 4SM BR SCT006 BKN020 OVC070 04/02 A2992 RMK AO2 T00390022
Traffic Incident Summary
Active as of:
Severity:
Category:
InformationThere was an issue retrieving the traffic information for this location. Please try a different location or try again shortly.
Advertisements
Track Severe Weather on mobile